Time;durP1;ratioP1;P1;durP2;ratioP2;P2;SDS_P1;SDS_P2;PMS_P1;PMS_P2;Temp;Humidity;BMP_temperature;BMP_pressure;BME280_temperature;BME280_humidity;BME280_pressure;Samples;Min_cycle;Max_cycle;Signal;HPM_P1;HPM_P2
2023/03/11 00:00:16;;;;;;;5.23;4.83;;;9.30;99.90;;;;;;5072260;28;20171;-77
2023/03/11 00:02:49;;;;;;;7.33;6.33;;;9.20;99.90;;;;;;5074669;28;20225;-75
2023/03/11 00:05:30;;;;;;;7.00;6.40;;;9.10;99.90;;;;;;5075012;28;20280;-86
2023/03/11 00:07:56;;;;;;;8.17;6.63;;;9.10;99.90;;;;;;5073276;28;20164;-72
2023/03/11 00:10:27;;;;;;;9.60;6.70;;;9.00;99.90;;;;;;5077593;28;20183;-80
2023/03/11 00:12:52;;;;;;;8.13;6.53;;;8.90;99.90;;;;;;5081441;28;20163;-77
2023/03/11 00:15:19;;;;;;;7.50;6.50;;;8.80;99.90;;;;;;5074165;28;20203;-80
2023/03/11 00:17:47;;;;;;;8.57;6.67;;;8.80;99.90;;;;;;5055415;28;20557;-76
2023/03/11 00:20:19;;;;;;;6.53;5.90;;;8.70;99.90;;;;;;5077338;28;20176;-73
2023/03/11 00:22:45;;;;;;;8.30;6.83;;;8.60;99.90;;;;;;5077853;28;20232;-73
2023/03/11 00:25:12;;;;;;;7.37;6.03;;;8.60;99.90;;;;;;5080012;28;20210;-77
2023/03/11 00:27:37;;;;;;;7.03;6.17;;;8.60;99.90;;;;;;5072985;28;20182;-78
2023/03/11 00:30:04;;;;;;;7.40;6.60;;;8.50;99.90;;;;;;5071821;28;20542;-72
2023/03/11 00:32:30;;;;;;;8.40;6.57;;;8.60;99.90;;;;;;5071496;28;20533;-81
2023/03/11 00:34:55;;;;;;;8.27;6.47;;;8.60;99.90;;;;;;5056425;28;20274;-83
2023/03/11 00:37:21;;;;;;;8.70;6.33;;;8.40;99.90;;;;;;5075611;28;20174;-75
2023/03/11 00:39:47;;;;;;;7.03;6.33;;;8.40;99.90;;;;;;5075479;28;20187;-76
2023/03/11 00:42:12;;;;;;;6.87;6.13;;;8.40;99.90;;;;;;5075356;28;20206;-75
2023/03/11 00:44:38;;;;;;;10.43;6.50;;;8.40;99.90;;;;;;5075175;28;20577;-72
2023/03/11 00:47:04;;;;;;;6.97;6.27;;;8.30;99.90;;;;;;5075340;28;20183;-75
2023/03/11 00:49:30;;;;;;;8.20;6.60;;;8.30;99.90;;;;;;5075265;28;20189;-72
2023/03/11 00:51:55;;;;;;;8.80;6.33;;;8.30;99.90;;;;;;5075284;28;20182;-75
2023/03/11 00:54:21;;;;;;;8.87;6.77;;;8.20;99.90;;;;;;5088453;28;20172;-83
2023/03/11 00:56:47;;;;;;;8.70;6.37;;;8.30;99.90;;;;;;5093019;28;20168;-87
2023/03/11 00:59:13;;;;;;;9.03;6.70;;;8.30;99.90;;;;;;5083094;28;20651;-83
2023/03/11 01:01:38;;;;;;;7.27;5.97;;;8.30;99.90;;;;;;5058307;28;20178;-85
2023/03/11 01:04:04;;;;;;;8.87;6.43;;;8.30;99.90;;;;;;5058023;28;20229;-81
2023/03/11 01:06:30;;;;;;;7.03;6.10;;;8.30;99.90;;;;;;5075904;28;20199;-80
2023/03/11 01:08:56;;;;;;;6.87;5.57;;;8.20;99.90;;;;;;5075885;28;20577;-85
2023/03/11 01:11:21;;;;;;;7.10;5.50;;;8.20;99.90;;;;;;5076152;28;20541;-86
2023/03/11 01:13:47;;;;;;;5.97;5.27;;;8.30;99.90;;;;;;5079597;28;20618;-86
2023/03/11 01:16:13;;;;;;;5.93;5.40;;;8.30;99.90;;;;;;5076037;28;20796;-87
2023/03/11 01:18:38;;;;;;;7.90;5.30;;;8.40;99.90;;;;;;5075550;28;20179;-85
2023/03/11 01:21:04;;;;;;;5.87;4.93;;;8.40;99.90;;;;;;5075966;28;20585;-83
2023/03/11 01:23:31;;;;;;;5.47;4.90;;;8.40;99.90;;;;;;5075427;28;20197;-81
2023/03/11 01:25:57;;;;;;;6.27;5.53;;;8.40;99.90;;;;;;5075939;28;20260;-84
2023/03/11 01:28:23;;;;;;;5.30;4.80;;;8.30;99.90;;;;;;5075324;28;20600;-83
2023/03/11 01:30:49;;;;;;;7.30;5.57;;;8.40;99.90;;;;;;5075897;28;20177;-86
2023/03/11 01:33:17;;;;;;;5.30;4.80;;;8.40;99.90;;;;;;5075258;28;20175;-85
2023/03/11 01:35:44;;;;;;;5.10;4.23;;;8.30;99.90;;;;;;5075369;28;20224;-85
2023/03/11 01:38:10;;;;;;;5.00;4.57;;;8.20;99.90;;;;;;5075672;28;20175;-85
2023/03/11 01:40:42;;;;;;;4.80;4.40;;;8.00;99.90;;;;;;5082128;28;20178;-84
2023/03/11 01:43:37;;;;;;;5.10;4.37;;;8.10;99.90;;;;;;5086485;28;20281;-81
2023/03/11 01:46:15;;;;;;;4.33;3.97;;;8.00;99.90;;;;;;5090794;28;20215;-83
2023/03/11 01:48:46;;;;;;;4.60;3.97;;;7.80;99.90;;;;;;5079591;28;20163;-83
2023/03/11 01:51:12;;;;;;;4.63;4.17;;;7.80;99.90;;;;;;5071335;28;20185;-77
2023/03/11 01:53:38;;;;;;;4.47;3.83;;;7.80;99.90;;;;;;5091352;28;20177;-86
2023/03/11 01:56:05;;;;;;;4.30;3.90;;;7.70;99.90;;;;;;5115551;28;20165;-75
2023/03/11 01:58:37;;;;;;;4.27;3.97;;;7.60;99.90;;;;;;5100517;28;20181;-85
2023/03/11 02:01:04;;;;;;;4.13;3.77;;;7.70;99.90;;;;;;5100058;28;20165;-82
2023/03/11 02:03:33;;;;;;;4.20;3.80;;;7.70;99.90;;;;;;5108223;28;20209;-83
2023/03/11 02:06:01;;;;;;;4.90;3.87;;;7.60;99.90;;;;;;5096315;28;20214;-86
2023/03/11 02:08:28;;;;;;;3.87;3.63;;;7.60;99.90;;;;;;5095605;28;20177;-83
2023/03/11 02:10:55;;;;;;;4.13;3.73;;;7.50;99.90;;;;;;5094687;28;20166;-88
2023/03/11 02:13:21;;;;;;;4.20;3.90;;;7.60;99.90;;;;;;5094771;28;20176;-83
2023/03/11 02:15:47;;;;;;;5.03;4.10;;;7.50;99.90;;;;;;5094721;28;20256;-84
2023/03/11 02:18:14;;;;;;;4.57;4.10;;;7.40;99.90;;;;;;5094706;28;20206;-87
2023/03/11 02:21:00;;;;;;;4.33;3.93;;;7.50;99.90;;;;;;5094870;28;20177;-84
2023/03/11 02:23:36;;;;;;;3.73;3.43;;;7.40;99.90;;;;;;5075282;28;20200;-82
2023/03/11 02:26:24;;;;;;;3.23;2.97;;;7.30;99.90;;;;;;5094046;28;20295;-74
2023/03/11 02:28:52;;;;;;;4.27;3.40;;;7.30;99.90;;;;;;5094710;28;20583;-73
2023/03/11 02:31:18;;;;;;;4.10;3.77;;;7.30;99.90;;;;;;5102673;28;20237;-86
2023/03/11 02:33:47;;;;;;;4.13;3.20;;;7.20;99.90;;;;;;5095036;28;20295;-81
2023/03/11 02:36:34;;;;;;;3.37;3.17;;;7.20;99.90;;;;;;5094890;28;20169;-85
2023/03/11 02:39:00;;;;;;;3.67;3.37;;;7.30;99.90;;;;;;5094745;28;20283;-81
2023/03/11 02:41:27;;;;;;;4.50;3.10;;;7.20;99.90;;;;;;5095109;28;20168;-84
2023/03/11 02:43:53;;;;;;;3.83;3.13;;;7.20;99.90;;;;;;5094488;28;20251;-78
2023/03/11 02:46:19;;;;;;;3.50;3.20;;;7.20;99.90;;;;;;5093610;28;20195;-81
2023/03/11 02:48:46;;;;;;;3.10;2.90;;;7.30;99.90;;;;;;5094586;28;20169;-75
2023/03/11 02:51:12;;;;;;;3.43;3.10;;;7.20;99.90;;;;;;5094186;28;20180;-84
2023/03/11 02:53:50;;;;;;;3.60;3.30;;;7.10;99.90;;;;;;5093986;28;20569;-86
2023/03/11 02:56:16;;;;;;;3.07;2.87;;;7.10;99.90;;;;;;5104700;28;20582;-79
2023/03/11 02:58:42;;;;;;;3.13;2.83;;;7.10;99.90;;;;;;5102254;28;20177;-85
2023/03/11 03:01:08;;;;;;;2.73;2.53;;;7.10;99.90;;;;;;5094961;28;20173;-82
2023/03/11 03:03:34;;;;;;;2.30;2.13;;;7.10;99.90;;;;;;5093913;28;20273;-82
2023/03/11 03:05:59;;;;;;;2.90;2.70;;;7.10;99.90;;;;;;5094168;28;20208;-86
2023/03/11 03:08:25;;;;;;;2.70;2.50;;;7.10;99.90;;;;;;5097244;28;20638;-74
2023/03/11 03:10:51;;;;;;;2.73;2.63;;;7.10;99.90;;;;;;5094132;28;20219;-79
2023/03/11 03:13:16;;;;;;;2.83;2.53;;;7.00;99.90;;;;;;5093601;28;20382;-79
2023/03/11 03:15:42;;;;;;;2.63;2.43;;;7.00;99.90;;;;;;5096154;28;20172;-76
2023/03/11 03:18:08;;;;;;;2.90;2.70;;;7.00;99.90;;;;;;5109695;28;20223;-86
2023/03/11 03:20:33;;;;;;;2.97;2.60;;;6.90;99.90;;;;;;5095390;28;20173;-80
2023/03/11 03:23:00;;;;;;;2.93;2.63;;;6.90;99.90;;;;;;5093894;28;20654;-87
2023/03/11 03:25:25;;;;;;;3.60;3.30;;;7.00;99.90;;;;;;5094146;28;20208;-87
2023/03/11 03:27:51;;;;;;;3.20;3.00;;;7.00;99.90;;;;;;5107071;28;20233;-80
2023/03/11 03:30:17;;;;;;;3.70;3.40;;;7.00;99.90;;;;;;5106455;28;20175;-82
2023/03/11 03:32:43;;;;;;;4.37;3.90;;;7.00;99.90;;;;;;5103076;28;20259;-73
2023/03/11 03:35:09;;;;;;;4.20;3.80;;;6.80;99.90;;;;;;5093552;28;20263;-82
2023/03/11 03:37:36;;;;;;;4.60;4.07;;;6.70;99.90;;;;;;5095789;28;20217;-84
2023/03/11 03:40:07;;;;;;;3.70;3.40;;;6.90;99.90;;;;;;5096791;28;20639;-77
2023/03/11 03:42:37;;;;;;;3.70;3.30;;;6.80;99.90;;;;;;5095307;28;20169;-78
2023/03/11 03:45:05;;;;;;;4.43;3.10;;;6.80;99.90;;;;;;5099113;28;20228;-78
2023/03/11 03:47:32;;;;;;;3.33;3.03;;;6.90;99.90;;;;;;5095408;28;20258;-88
2023/03/11 03:49:57;;;;;;;2.33;2.23;;;6.90;99.90;;;;;;5093169;28;20172;-88
2023/03/11 03:52:24;;;;;;;2.77;2.57;;;6.90;99.90;;;;;;5093979;28;20181;-87
2023/03/11 03:54:50;;;;;;;3.00;2.73;;;6.90;99.90;;;;;;5096380;28;20184;-83
2023/03/11 03:57:16;;;;;;;1.20;1.20;;;6.90;99.90;;;;;;5111998;28;20184;-73
2023/03/11 03:59:41;;;;;;;1.33;1.23;;;7.00;99.90;;;;;;5109191;28;20231;-82
2023/03/11 04:02:07;;;;;;;0.67;0.67;;;7.00;99.90;;;;;;5077513;28;20232;-73
2023/03/11 04:04:33;;;;;;;0.60;0.60;;;7.10;98.20;;;;;;5074328;28;20507;-75
2023/03/11 04:06:58;;;;;;;0.37;0.37;;;7.40;99.70;;;;;;5100426;28;20211;-77
2023/03/11 04:09:24;;;;;;;0.40;0.40;;;7.40;95.80;;;;;;5093930;28;20177;-84
2023/03/11 04:11:50;;;;;;;0.40;0.40;;;7.60;94.70;;;;;;5093135;28;20232;-77
2023/03/11 04:14:16;;;;;;;0.77;0.50;;;7.70;93.90;;;;;;5093044;28;20165;-84
2023/03/11 04:16:41;;;;;;;0.30;0.30;;;7.70;93.90;;;;;;5092710;28;20209;-82
2023/03/11 04:19:08;;;;;;;0.30;0.30;;;7.80;93.10;;;;;;5093029;28;20534;-89
2023/03/11 04:21:33;;;;;;;0.30;0.30;;;7.70;93.50;;;;;;5092743;28;20181;-75
2023/03/11 04:23:59;;;;;;;0.30;0.30;;;8.00;91.40;;;;;;5093036;28;20185;-84
2023/03/11 04:26:27;;;;;;;0.20;0.20;;;8.10;90.70;;;;;;5092296;28;20207;-88
2023/03/11 04:28:53;;;;;;;0.30;0.30;;;8.20;88.70;;;;;;5092793;28;20330;-77
2023/03/11 04:31:18;;;;;;;0.23;0.23;;;8.20;88.80;;;;;;5092641;28;20693;-81
2023/03/11 04:33:44;;;;;;;0.40;0.40;;;8.20;88.50;;;;;;5092660;28;20526;-87
2023/03/11 04:36:10;;;;;;;2.33;0.30;;;8.20;87.10;;;;;;5092628;28;20530;-84
2023/03/11 04:38:36;;;;;;;0.20;0.20;;;8.30;85.90;;;;;;5092635;28;20307;-86
2023/03/11 04:41:04;;;;;;;0.30;0.30;;;8.30;85.30;;;;;;5092481;28;20609;-83
2023/03/11 04:43:30;;;;;;;0.30;0.30;;;8.30;84.90;;;;;;5092296;28;20436;-78
2023/03/11 04:45:56;;;;;;;0.37;0.37;;;8.30;85.60;;;;;;5093110;28;20292;-88
2023/03/11 04:48:22;;;;;;;0.60;0.60;;;8.30;83.20;;;;;;5100994;28;20176;-78
2023/03/11 04:50:47;;;;;;;0.40;0.40;;;8.30;82.70;;;;;;5102492;28;20515;-83
2023/03/11 04:53:13;;;;;;;0.30;0.30;;;8.30;82.40;;;;;;5093545;28;20203;-83
2023/03/11 04:55:40;;;;;;;0.30;0.30;;;8.30;81.20;;;;;;5093048;28;20177;-89
2023/03/11 04:58:06;;;;;;;0.50;0.50;;;8.20;80.80;;;;;;5093203;28;20192;-76
2023/03/11 05:00:31;;;;;;;0.40;0.40;;;8.30;81.60;;;;;;5112911;28;20184;-86
2023/03/11 05:02:57;;;;;;;0.20;0.20;;;8.30;80.40;;;;;;5103783;28;20170;-85
2023/03/11 05:05:23;;;;;;;0.40;0.40;;;8.20;79.60;;;;;;5097332;28;20203;-87
2023/03/11 05:07:48;;;;;;;0.30;0.30;;;8.20;79.90;;;;;;5092741;28;20335;-86
2023/03/11 05:10:21;;;;;;;0.70;0.70;;;8.20;80.90;;;;;;5092437;28;20625;-76
2023/03/11 05:12:47;;;;;;;1.07;0.40;;;8.00;81.00;;;;;;5092118;28;20174;-81
2023/03/11 05:15:13;;;;;;;0.30;0.30;;;8.10;80.90;;;;;;5092638;28;20539;-78
2023/03/11 05:17:39;;;;;;;0.40;0.40;;;8.10;81.70;;;;;;5095006;28;20170;-77
2023/03/11 05:20:06;;;;;;;0.40;0.40;;;8.10;82.50;;;;;;5097712;28;20181;-74
2023/03/11 05:22:32;;;;;;;0.30;0.30;;;8.00;82.70;;;;;;5097647;28;20648;-79
2023/03/11 05:24:58;;;;;;;0.40;0.40;;;8.00;82.80;;;;;;5095679;28;20226;-75
2023/03/11 05:27:24;;;;;;;0.50;0.50;;;8.00;82.60;;;;;;5095269;28;20190;-75
2023/03/11 05:29:50;;;;;;;0.50;0.50;;;7.90;83.00;;;;;;5095068;28;20260;-75
2023/03/11 05:32:18;;;;;;;1.63;0.50;;;7.80;82.80;;;;;;5096087;28;20179;-82
2023/03/11 05:34:44;;;;;;;1.10;0.33;;;7.90;82.60;;;;;;5095706;28;20177;-74
2023/03/11 05:37:10;;;;;;;0.57;0.23;;;7.90;82.20;;;;;;5078513;28;20651;-74
2023/03/11 05:39:36;;;;;;;0.13;0.13;;;7.90;81.40;;;;;;5080898;28;20181;-77
2023/03/11 05:42:06;;;;;;;0.30;0.30;;;7.90;80.80;;;;;;5102117;28;20186;-73
2023/03/11 05:44:33;;;;;;;0.97;0.50;;;7.80;81.30;;;;;;5102006;28;20307;-80
2023/03/11 05:46:59;;;;;;;0.30;0.30;;;7.90;81.10;;;;;;5096361;28;20216;-87
2023/03/11 05:49:25;;;;;;;0.30;0.30;;;7.80;81.00;;;;;;5096642;28;20174;-84
2023/03/11 05:51:53;;;;;;;0.37;0.37;;;7.80;81.10;;;;;;5097745;28;20183;-84
2023/03/11 05:54:18;;;;;;;0.40;0.40;;;7.80;80.80;;;;;;5100958;28;20167;-83
2023/03/11 05:56:45;;;;;;;0.30;0.30;;;7.70;80.60;;;;;;5097416;28;20300;-77
2023/03/11 05:59:13;;;;;;;0.40;0.40;;;7.70;81.40;;;;;;5098525;28;20172;-81
2023/03/11 06:01:39;;;;;;;0.30;0.30;;;7.60;82.10;;;;;;5102610;28;20229;-82
2023/03/11 06:04:06;;;;;;;0.40;0.40;;;7.60;81.80;;;;;;5101775;28;20218;-76
2023/03/11 06:06:31;;;;;;;0.23;0.23;;;7.60;81.10;;;;;;5096977;28;20200;-84
2023/03/11 06:08:57;;;;;;;0.20;0.20;;;7.60;81.20;;;;;;5095688;28;20210;-82
2023/03/11 06:11:24;;;;;;;0.40;0.40;;;7.50;81.00;;;;;;5095658;28;20241;-82
2023/03/11 06:13:54;;;;;;;0.50;0.50;;;7.50;81.90;;;;;;5095807;28;20262;-83
2023/03/11 06:16:21;;;;;;;0.50;0.23;;;7.60;81.10;;;;;;5095828;28;20174;-87
2023/03/11 06:18:47;;;;;;;0.30;0.30;;;7.50;81.40;;;;;;5096043;28;20520;-82
2023/03/11 06:21:19;;;;;;;0.40;0.40;;;7.40;81.20;;;;;;5100607;28;20175;-82
2023/03/11 06:23:45;;;;;;;0.30;0.30;;;7.40;81.00;;;;;;5102767;28;20613;-86
2023/03/11 06:26:13;;;;;;;0.50;0.50;;;7.50;80.60;;;;;;5096624;28;20255;-88
2023/03/11 06:28:41;;;;;;;0.60;0.60;;;7.50;81.00;;;;;;5096211;28;20171;-87
2023/03/11 06:31:14;;;;;;;0.60;0.60;;;7.50;80.70;;;;;;5097869;28;20178;-87
2023/03/11 06:33:40;;;;;;;0.70;0.40;;;7.50;79.60;;;;;;5100610;28;20179;-79
2023/03/11 06:36:06;;;;;;;0.70;0.70;;;7.50;80.10;;;;;;5096043;28;20176;-75
2023/03/11 06:38:33;;;;;;;0.60;0.60;;;7.50;79.80;;;;;;5094176;28;20176;-76
2023/03/11 06:41:03;;;;;;;0.30;0.30;;;7.50;79.50;;;;;;5093830;28;20222;-76
2023/03/11 06:43:30;;;;;;;0.60;0.60;;;7.50;79.70;;;;;;5093589;28;20225;-75
2023/03/11 06:45:57;;;;;;;0.40;0.40;;;7.50;80.00;;;;;;5095315;28;20901;-76
2023/03/11 06:48:23;;;;;;;0.50;0.50;;;7.60;80.50;;;;;;5093596;28;20177;-76
2023/03/11 06:50:56;;;;;;;0.40;0.40;;;7.60;79.80;;;;;;5093358;28;20171;-76
2023/03/11 06:53:22;;;;;;;0.60;0.60;;;7.70;79.30;;;;;;5093244;28;20171;-73
2023/03/11 06:56:01;;;;;;;0.47;0.47;;;7.70;79.40;;;;;;5087050;28;20191;-74
2023/03/11 06:58:28;;;;;;;0.97;0.97;;;7.70;77.60;;;;;;5093444;28;20173;-76
2023/03/11 07:00:54;;;;;;;0.83;0.40;;;7.70;78.50;;;;;;5093118;28;20265;-74
2023/03/11 07:03:19;;;;;;;1.50;0.30;;;7.70;77.90;;;;;;5093079;28;20607;-77
2023/03/11 07:05:49;;;;;;;0.50;0.50;;;7.70;77.90;;;;;;5092996;28;20300;-76
2023/03/11 07:08:14;;;;;;;0.47;0.47;;;7.60;78.10;;;;;;5092798;28;20177;-75
2023/03/11 07:10:40;;;;;;;0.40;0.40;;;7.70;76.50;;;;;;5074901;28;20192;-78
2023/03/11 07:13:06;;;;;;;0.30;0.30;;;7.80;76.50;;;;;;5075288;28;20648;-75
2023/03/11 07:15:32;;;;;;;0.37;0.27;;;7.70;76.00;;;;;;5095167;28;20238;-73
2023/03/11 07:17:58;;;;;;;0.20;0.20;;;7.80;76.40;;;;;;5102885;28;20173;-73
2023/03/11 07:20:23;;;;;;;0.30;0.30;;;7.90;75.60;;;;;;5098273;28;20267;-78
2023/03/11 07:22:49;;;;;;;0.30;0.30;;;8.00;75.30;;;;;;5093061;28;20172;-78
2023/03/11 07:25:15;;;;;;;0.30;0.30;;;8.00;75.30;;;;;;5092623;28;20197;-72
2023/03/11 07:27:41;;;;;;;0.20;0.20;;;8.00;73.90;;;;;;5092874;28;20173;-75
2023/03/11 07:30:07;;;;;;;0.40;0.40;;;8.00;74.60;;;;;;5092498;28;20169;-79
2023/03/11 07:32:33;;;;;;;0.30;0.30;;;7.90;74.00;;;;;;5074700;28;20195;-79
2023/03/11 07:34:58;;;;;;;0.50;0.50;;;7.90;74.40;;;;;;5093213;28;20170;-80
2023/03/11 07:37:24;;;;;;;0.50;0.50;;;7.90;74.10;;;;;;5092697;28;20181;-75
2023/03/11 07:39:50;;;;;;;0.50;0.50;;;8.00;74.50;;;;;;5092605;28;20690;-82
2023/03/11 07:42:16;;;;;;;0.20;0.20;;;8.00;74.40;;;;;;5092354;28;20176;-80
2023/03/11 07:44:41;;;;;;;0.50;0.50;;;7.90;74.40;;;;;;5103745;28;20235;-79
2023/03/11 07:47:07;;;;;;;0.50;0.50;;;7.90;74.20;;;;;;5112814;28;20200;-79
2023/03/11 07:49:33;;;;;;;0.50;0.50;;;7.80;74.00;;;;;;5112894;28;20241;-74
2023/03/11 07:51:59;;;;;;;0.40;0.40;;;7.90;74.50;;;;;;5112323;28;20210;-76
2023/03/11 07:54:25;;;;;;;0.27;0.27;;;7.90;73.80;;;;;;5119398;28;20217;-76
2023/03/11 07:56:50;;;;;;;0.37;0.37;;;8.00;72.50;;;;;;5111763;28;20183;-79
2023/03/11 07:59:16;;;;;;;0.43;0.43;;;7.90;72.00;;;;;;5113316;28;20256;-76
2023/03/11 08:01:45;;;;;;;0.20;0.20;;;7.90;72.10;;;;;;5112470;28;20656;-79
2023/03/11 08:04:12;;;;;;;0.30;0.30;;;8.10;73.00;;;;;;5113775;28;20175;-75
2023/03/11 08:06:41;;;;;;;0.20;0.20;;;8.30;72.00;;;;;;5121074;28;20204;-78
2023/03/11 08:09:08;;;;;;;0.30;0.30;;;8.50;70.70;;;;;;5121596;28;20164;-76
2023/03/11 08:11:34;;;;;;;0.23;0.23;;;8.60;70.10;;;;;;5113067;28;20196;-78
2023/03/11 08:14:01;;;;;;;0.30;0.30;;;8.60;69.80;;;;;;5115607;28;20191;-80
2023/03/11 08:16:27;;;;;;;0.70;0.40;;;8.50;69.60;;;;;;5117200;28;20160;-80
2023/03/11 08:18:55;;;;;;;0.20;0.20;;;8.60;69.90;;;;;;5114724;28;20204;-83
2023/03/11 08:21:24;;;;;;;0.40;0.40;;;8.60;70.50;;;;;;5111090;28;20183;-75
2023/03/11 08:23:51;;;;;;;0.40;0.40;;;8.70;69.70;;;;;;5112477;28;20177;-73
2023/03/11 08:26:20;;;;;;;1.13;1.03;;;8.60;69.80;;;;;;5113008;28;20197;-77
2023/03/11 08:28:47;;;;;;;0.40;0.40;;;8.60;70.40;;;;;;5113006;28;20905;-76
2023/03/11 08:31:21;;;;;;;0.50;0.50;;;8.70;69.50;;;;;;5113193;28;20240;-77
2023/03/11 08:33:51;;;;;;;0.30;0.30;;;8.70;68.90;;;;;;5112922;28;20259;-78
2023/03/11 08:36:18;;;;;;;0.30;0.30;;;8.60;68.90;;;;;;5113249;28;20165;-75
2023/03/11 08:38:44;;;;;;;1.30;0.50;;;8.60;68.90;;;;;;5112535;28;20181;-76
2023/03/11 08:41:10;;;;;;;0.30;0.30;;;8.70;68.50;;;;;;5111718;28;20224;-76
2023/03/11 08:43:35;;;;;;;0.40;0.40;;;8.80;68.30;;;;;;5104319;28;20244;-76
2023/03/11 08:46:05;;;;;;;0.30;0.30;;;8.80;68.10;;;;;;5091837;28;20693;-73
2023/03/11 08:48:31;;;;;;;0.40;0.40;;;8.90;67.40;;;;;;5091722;28;20173;-74
2023/03/11 08:50:57;;;;;;;0.50;0.50;;;8.90;66.90;;;;;;5092951;28;20176;-73
2023/03/11 08:53:24;;;;;;;0.50;0.50;;;8.90;67.50;;;;;;5075421;28;20204;-74
2023/03/11 08:55:51;;;;;;;0.60;0.60;;;9.10;67.60;;;;;;5106240;28;20190;-73
2023/03/11 08:58:17;;;;;;;0.50;0.50;;;9.20;66.00;;;;;;5101475;28;20580;-75
2023/03/11 09:00:43;;;;;;;0.53;0.53;;;9.00;65.90;;;;;;5096292;28;20187;-73
2023/03/11 09:03:09;;;;;;;1.40;0.50;;;9.00;65.80;;;;;;5095763;28;20618;-76
2023/03/11 09:05:36;;;;;;;0.37;0.37;;;9.00;65.40;;;;;;5095869;28;20201;-79
2023/03/11 09:08:03;;;;;;;0.30;0.30;;;9.10;65.30;;;;;;5095568;28;20181;-79
2023/03/11 09:10:29;;;;;;;0.50;0.50;;;9.10;64.60;;;;;;5077044;28;20177;-77
2023/03/11 09:12:54;;;;;;;0.67;0.67;;;9.10;64.50;;;;;;5095151;28;20696;-72
2023/03/11 09:15:20;;;;;;;0.40;0.40;;;9.10;64.30;;;;;;5095435;28;20725;-76
2023/03/11 09:17:46;;;;;;;0.20;0.20;;;9.10;63.60;;;;;;5095135;28;20668;-78
2023/03/11 09:20:13;;;;;;;0.37;0.37;;;9.10;63.20;;;;;;5095481;28;20276;-78
2023/03/11 09:22:39;;;;;;;0.50;0.50;;;9.00;62.80;;;;;;5095267;28;20178;-71
2023/03/11 09:25:06;;;;;;;0.97;0.40;;;9.00;62.80;;;;;;5095113;28;20179;-79
2023/03/11 09:27:31;;;;;;;0.30;0.30;;;9.00;62.60;;;;;;5096725;28;20178;-76
2023/03/11 09:29:57;;;;;;;0.40;0.40;;;8.90;62.90;;;;;;5097498;28;20177;-79
2023/03/11 09:32:23;;;;;;;0.40;0.40;;;9.00;63.20;;;;;;5095340;28;20176;-78
2023/03/11 09:34:48;;;;;;;0.40;0.40;;;9.10;63.30;;;;;;5095257;28;20266;-73
2023/03/11 09:37:14;;;;;;;0.43;0.43;;;9.10;61.80;;;;;;5077508;28;20264;-79
2023/03/11 09:39:40;;;;;;;0.40;0.40;;;9.10;62.00;;;;;;5084628;28;20176;-79
2023/03/11 09:42:35;;;;;;;0.30;0.30;;;9.10;62.10;;;;;;5094558;28;20188;-79
2023/03/11 09:45:17;;;;;;;0.40;0.40;;;9.10;61.70;;;;;;5094803;28;20231;-76
2023/03/11 09:47:57;;;;;;;0.40;0.40;;;9.00;61.20;;;;;;5094879;28;20162;-74
2023/03/11 09:50:42;;;;;;;0.47;0.47;;;9.00;61.50;;;;;;5094382;28;21065;-81
2023/03/11 09:53:26;;;;;;;0.40;0.40;;;9.10;61.90;;;;;;5094399;28;20169;-75
2023/03/11 09:55:57;;;;;;;0.50;0.23;;;9.30;61.80;;;;;;5094635;28;20165;-80
2023/03/11 09:58:44;;;;;;;0.40;0.40;;;9.30;60.60;;;;;;5094417;28;20566;-78
2023/03/11 10:01:19;;;;;;;0.77;0.50;;;9.30;60.60;;;;;;5094135;28;20609;-78
2023/03/11 10:03:46;;;;;;;0.43;0.43;;;9.30;60.40;;;;;;5094481;28;20635;-80
2023/03/11 10:06:27;;;;;;;0.43;0.43;;;9.20;60.40;;;;;;5093569;28;20207;-79
2023/03/11 10:09:11;;;;;;;0.53;0.53;;;9.20;60.40;;;;;;5094793;28;20173;-77
2023/03/11 10:11:56;;;;;;;0.50;0.50;;;9.30;59.90;;;;;;5094723;28;20171;-77
2023/03/11 10:14:41;;;;;;;0.50;0.50;;;9.30;59.60;;;;;;5097494;28;20211;-79
2023/03/11 10:17:21;;;;;;;0.43;0.43;;;9.30;60.00;;;;;;5109233;28;20617;-80
2023/03/11 10:19:54;;;;;;;0.60;0.40;;;9.30;59.60;;;;;;5095349;28;20162;-79
2023/03/11 10:23:17;;;;;;;0.60;0.60;;;9.40;60.30;;;;;;5094299;28;20177;-79
2023/03/11 10:25:59;;;;;;;0.57;0.57;;;9.40;59.00;;;;;;4992589;28;20620;-83
2023/03/11 10:28:49;;;;;;;0.40;0.40;;;9.40;59.60;;;;;;4992840;28;20192;-74
2023/03/11 10:31:33;;;;;;;0.37;0.37;;;9.40;58.90;;;;;;4992459;28;20584;-75
2023/03/11 10:34:10;;;;;;;0.57;0.40;;;9.50;59.10;;;;;;5004566;28;20179;-84
2023/03/11 10:36:49;;;;;;;0.33;0.33;;;9.50;59.40;;;;;;4995398;28;20232;-82
2023/03/11 10:39:16;;;;;;;0.40;0.40;;;9.60;59.40;;;;;;4993270;28;20174;-86
2023/03/11 10:41:54;;;;;;;0.80;0.40;;;9.50;58.90;;;;;;4992781;28;20308;-86
2023/03/11 10:44:39;;;;;;;1.20;0.40;;;9.50;59.30;;;;;;5021490;28;20703;-81
2023/03/11 10:47:11;;;;;;;0.67;0.37;;;9.70;58.80;;;;;;5031162;28;20241;-79
2023/03/11 10:49:37;;;;;;;0.50;0.50;;;9.70;58.80;;;;;;5031626;28;20641;-80
2023/03/11 10:52:03;;;;;;;0.30;0.30;;;9.70;59.00;;;;;;5033154;28;20177;-84
2023/03/11 10:54:37;;;;;;;0.30;0.30;;;9.70;58.40;;;;;;5033477;28;20178;-83
2023/03/11 10:57:05;;;;;;;0.50;0.50;;;9.70;58.90;;;;;;5094792;28;20186;-76
2023/03/11 10:59:46;;;;;;;0.50;0.50;;;9.60;58.60;;;;;;5114614;28;20176;-79
2023/03/11 11:02:49;;;;;;;0.50;0.50;;;9.50;58.60;;;;;;5128507;28;20207;-81
2023/03/11 11:05:21;;;;;;;0.33;0.33;;;9.60;58.70;;;;;;5116211;28;20570;-73
2023/03/11 11:08:00;;;;;;;0.83;0.63;;;9.60;58.20;;;;;;5114913;28;20185;-80
2023/03/11 11:10:27;;;;;;;0.53;0.53;;;9.60;58.20;;;;;;5114581;28;20212;-82
2023/03/11 11:12:55;;;;;;;0.30;0.30;;;9.60;58.40;;;;;;5127497;28;20165;-78
2023/03/11 11:15:30;;;;;;;0.87;0.53;;;9.60;58.30;;;;;;5118085;28;20209;-85
2023/03/11 11:18:05;;;;;;;0.50;0.50;;;9.70;58.50;;;;;;5114217;28;20302;-81
2023/03/11 11:20:32;;;;;;;0.40;0.40;;;9.80;58.80;;;;;;5117990;28;20168;-84
2023/03/11 11:23:01;;;;;;;0.20;0.20;;;9.70;58.30;;;;;;5121563;28;20236;-79
2023/03/11 11:25:55;;;;;;;0.30;0.30;;;9.70;58.80;;;;;;5121590;28;20259;-78
2023/03/11 11:28:21;;;;;;;0.60;0.50;;;9.70;58.90;;;;;;5123803;28;20193;-73
2023/03/11 11:31:03;;;;;;;0.50;0.50;;;9.70;58.70;;;;;;5120954;28;20185;-81
2023/03/11 11:33:50;;;;;;;0.40;0.40;;;9.70;59.40;;;;;;5116303;28;20180;-80
2023/03/11 11:36:17;;;;;;;0.40;0.40;;;9.80;58.60;;;;;;5117043;28;20248;-83
2023/03/11 11:38:43;;;;;;;0.60;0.60;;;9.80;59.10;;;;;;5115779;28;20180;-85
2023/03/11 11:41:15;;;;;;;0.60;0.50;;;9.90;59.00;;;;;;5116491;28;20640;-86
2023/03/11 11:43:56;;;;;;;0.57;0.57;;;10.00;58.20;;;;;;5106971;28;20234;-82
2023/03/11 11:46:37;;;;;;;0.40;0.40;;;9.80;59.30;;;;;;5097355;28;20206;-87
2023/03/11 11:49:28;;;;;;;0.30;0.30;;;9.90;58.90;;;;;;5096187;28;20196;-77
2023/03/11 11:52:05;;;;;;;0.40;0.40;;;9.90;58.30;;;;;;5092562;28;20207;-75
2023/03/11 11:54:52;;;;;;;0.30;0.30;;;10.10;57.70;;;;;;5093167;28;20271;-77
2023/03/11 11:57:21;;;;;;;0.40;0.40;;;10.10;57.30;;;;;;5094011;28;20195;-74
2023/03/11 11:59:47;;;;;;;0.30;0.30;;;10.00;56.80;;;;;;5093000;28;20174;-73
2023/03/11 12:02:18;;;;;;;0.50;0.50;;;10.00;57.00;;;;;;5093252;28;20174;-75
2023/03/11 12:04:44;;;;;;;0.30;0.30;;;10.00;56.50;;;;;;5092813;28;20170;-76
2023/03/11 12:07:39;;;;;;;0.50;0.50;;;10.00;57.00;;;;;;5094207;28;20734;-73
2023/03/11 12:10:22;;;;;;;1.20;0.60;;;10.10;56.60;;;;;;5102742;28;20155;-74
2023/03/11 12:12:54;;;;;;;0.30;0.30;;;10.00;56.80;;;;;;5101851;28;20163;-79
2023/03/11 12:15:25;;;;;;;0.30;0.30;;;10.00;56.60;;;;;;5093722;28;20265;-75
2023/03/11 12:17:56;;;;;;;0.50;0.50;;;10.10;56.90;;;;;;5094138;28;20529;-77
2023/03/11 12:20:22;;;;;;;0.30;0.30;;;10.10;57.20;;;;;;5094655;28;20209;-84
2023/03/11 12:23:23;;;;;;;0.40;0.40;;;10.10;57.20;;;;;;5102229;28;20178;-79
2023/03/11 12:26:10;;;;;;;0.40;0.40;;;10.20;56.30;;;;;;5104338;28;20228;-81
2023/03/11 12:28:45;;;;;;;0.40;0.40;;;10.20;55.90;;;;;;5093167;28;20166;-74
2023/03/11 12:31:12;;;;;;;1.07;0.47;;;10.10;55.60;;;;;;5097396;28;20252;-73
2023/03/11 12:33:50;;;;;;;0.40;0.40;;;10.00;55.20;;;;;;5080396;28;20227;-76
2023/03/11 12:36:23;;;;;;;0.63;0.57;;;10.10;55.90;;;;;;5103075;28;20581;-77
2023/03/11 12:38:51;;;;;;;0.50;0.50;;;10.20;55.70;;;;;;5097443;28;20187;-77
2023/03/11 12:41:40;;;;;;;2.77;1.97;;;10.20;55.80;;;;;;5097054;28;20257;-77
2023/03/11 12:44:29;;;;;;;1.83;1.67;;;10.20;55.50;;;;;;5099371;28;20233;-77
2023/03/11 12:46:57;;;;;;;0.60;0.60;;;10.10;55.60;;;;;;5122712;28;20649;-77
2023/03/11 12:49:47;;;;;;;0.50;0.50;;;10.20;55.50;;;;;;5118460;28;20193;-78
2023/03/11 12:52:13;;;;;;;0.50;0.50;;;10.20;55.60;;;;;;5116460;28;20173;-79
2023/03/11 12:54:43;;;;;;;0.50;0.50;;;10.20;55.10;;;;;;5116471;28;20187;-79
2023/03/11 12:57:14;;;;;;;0.93;0.80;;;10.30;55.10;;;;;;5116663;28;20167;-80
2023/03/11 13:00:16;;;;;;;1.40;0.50;;;10.30;54.90;;;;;;5116392;28;20664;-84
2023/03/11 13:03:16;;;;;;;1.30;0.40;;;10.30;54.20;;;;;;5116068;28;20200;-78
2023/03/11 13:06:24;;;;;;;0.40;0.40;;;10.20;54.70;;;;;;5116346;28;20296;-78
2023/03/11 13:08:56;;;;;;;0.40;0.40;;;10.20;54.80;;;;;;5116533;28;20628;-78